Strona główna
METAR-TAF:

METAR-TAF

Lotnisko :

Port lotniczy Ostrawa

Ostrawa, Czechy

Szerokość geograficzna: 49-41N, Długość geograficzna: 018-07E, wysokość: 256 m

Aktualna obserwacja pogody

Raport powstał 16 minut temu, godzina 12:00 UTC
Wiatr 15 kt od południowy zachód
Temperatura 11°C
Wilgotność 54%
Ciśnienie 1022 hPa
Widzialność 10 km lub więcej
Brak chmur poniżej 1500 m i brak chmur cumulonimbus

METAR: LKMT 181200Z 23015KT CAVOK 11/02 Q1022 NOSIG

czas: 13:16 (12:16 UTC)

Prognoza

Raport powstał 1 godzina i 16 minut temu, godzina 11:00 UTC
Prognoza ważna od 18 godzina 12 UTC do 19 godzina 18 UTC
Wiatr 8 kt od południowo-południowy zachód
Widzialność 10 km lub więcej
Brak chmur poniżej 1500 m i brak chmur cumulonimbus
Przejściowo
od 18 godzina 12 UTC do 18 godzina 16 UTC
Wiatr 18 kt od południowy zachód
Przejściowo
od 19 godzina 10 UTC do 19 godzina 16 UTC
Wiatr 18 kt od południowy zachód w porywach dochodzący do 28 kt

TAF: LKMT 181100Z 1812/1918 21008KT CAVOK TEMPO 1812/1816 23018KT TEMPO 1910/1916 23018G28KT

Obserwacja i prognoza pogody dla ponad 4000 lotnisk (raport METAR i TAF).

Dostępne stacje oznaczono żółtymi i czerwonymi punktami na mapie.

Najedź kursorem aby zobaczyć nazwę stacji.

Kliknij aby zobaczyć obserwacje i prognozy pogody.

Aby zmienić mapę: kliknij na zielony przycisk z czarnym krzyżykiem, aby powiększyć; na zielony przycisk z myślnikiem, aby pomniejszyć; na zielone strzałki, aby przejść do map sąsiednich.


METAR-TAF: